Terminal Aerodrome Forecast
Issued by NWS

Home | Current Version | Previous Version | Text Only | Print | Product List | Glossary On
Versions: 1 2 3 4 5 6 7 8 9 10 11 12 13 14 15 16 17 18 19 20 21
000
FTUS46 KMTR 252343
TAFOAK
TAF
KOAK 252343Z 2600/2706 27015G20KT P6SM FEW015 BKN017
      TEMPO 2600/2604 FEW015 SCT017
     FM260400 27010KT P6SM OVC015
     FM261900 25008KT P6SM SCT020
     FM262100 27011KT P6SM SCT030
     FM270300 29010KT P6SM SCT020=

USA.gov is the U.S. government's official web portal to all federal, state and local government web resources and services.